Time;durP1;ratioP1;P1;durP2;ratioP2;P2;SDS_P1;SDS_P2;PMS_P1;PMS_P2;Temp;Humidity;BMP_temperature;BMP_pressure;BME280_temperature;BME280_humidity;BME280_pressure;Samples;Min_cycle;Max_cycle;Signal;HPM_P1;HPM_P2
2022/03/01 00:00:06;;;;;;;2.65;1.52;;;4.80;82.90;;;;;;6315478;22;20060;-71
2022/03/01 00:02:32;;;;;;;0.43;0.43;;;4.80;82.80;;;;;;6303612;22;20022;-71
2022/03/01 00:04:57;;;;;;;1.20;1.13;;;4.90;82.00;;;;;;6315359;22;20031;-71
2022/03/01 00:07:23;;;;;;;0.17;0.17;;;4.80;82.40;;;;;;6303867;22;20039;-71
2022/03/01 00:09:49;;;;;;;0.10;0.10;;;4.70;83.00;;;;;;6315540;22;20014;-71
2022/03/01 00:12:15;;;;;;;0.00;0.00;;;4.70;83.10;;;;;;6305387;22;20011;-71
2022/03/01 00:14:41;;;;;;;0.35;0.35;;;4.60;83.60;;;;;;6278331;22;20031;-72
2022/03/01 00:17:07;;;;;;;0.20;0.20;;;4.60;83.70;;;;;;6306703;22;20055;-71
2022/03/01 00:19:32;;;;;;;8.10;3.70;;;4.50;84.40;;;;;;6317649;22;20004;-71
2022/03/01 00:21:59;;;;;;;2.88;2.25;;;4.60;83.90;;;;;;6317353;22;20333;-71
2022/03/01 00:24:25;;;;;;;0.15;0.15;;;4.60;84.00;;;;;;6315895;22;20007;-71
2022/03/01 00:26:51;;;;;;;5.47;2.28;;;4.60;83.90;;;;;;6305861;22;20083;-71
2022/03/01 00:29:17;;;;;;;0.05;0.05;;;4.60;83.10;;;;;;6317442;22;20010;-71
2022/03/01 00:31:42;;;;;;;8.30;4.72;;;4.60;82.30;;;;;;6305506;22;20195;-71
2022/03/01 00:34:11;;;;;;;0.13;0.13;;;4.60;81.40;;;;;;6317297;22;20364;-71
2022/03/01 00:36:37;;;;;;;1.13;1.08;;;4.50;80.70;;;;;;6317132;22;20011;-71
2022/03/01 00:39:07;;;;;;;4.18;3.85;;;4.50;80.50;;;;;;6315552;22;20446;-71
2022/03/01 00:41:33;;;;;;;0.40;0.40;;;4.50;80.20;;;;;;6317238;22;20008;-71
2022/03/01 00:43:59;;;;;;;0.10;0.10;;;4.50;80.90;;;;;;6306984;22;20015;-71
2022/03/01 00:46:26;;;;;;;0.20;0.20;;;4.40;81.10;;;;;;6315683;22;20468;-70
2022/03/01 00:48:57;;;;;;;0.13;0.13;;;4.20;82.30;;;;;;6315446;22;20356;-71
2022/03/01 00:51:26;;;;;;;0.00;0.00;;;4.10;82.90;;;;;;6306725;22;20011;-71
2022/03/01 00:53:52;;;;;;;0.25;0.25;;;4.00;83.60;;;;;;6315810;22;20498;-71
2022/03/01 00:56:18;;;;;;;0.30;0.30;;;4.00;84.90;;;;;;6317163;22;20008;-70
2022/03/01 00:58:44;;;;;;;0.20;0.20;;;3.90;85.10;;;;;;6305345;22;20019;-71
2022/03/01 01:01:10;;;;;;;1.67;1.58;;;3.90;85.50;;;;;;6306870;22;20043;-71
2022/03/01 01:03:36;;;;;;;0.10;0.10;;;3.80;86.00;;;;;;6315765;22;20498;-71
2022/03/01 01:06:03;;;;;;;0.10;0.10;;;3.70;86.30;;;;;;6279265;22;20362;-71
2022/03/01 01:08:29;;;;;;;4.00;2.47;;;3.80;85.30;;;;;;6317006;22;20083;-71
2022/03/01 01:10:55;;;;;;;0.32;0.30;;;3.80;85.50;;;;;;6289598;22;20043;-71
2022/03/01 01:13:20;;;;;;;1.52;1.45;;;3.60;86.30;;;;;;6305491;22;20000;-71
2022/03/01 01:15:46;;;;;;;0.82;0.82;;;3.70;87.10;;;;;;6316980;22;20010;-71
2022/03/01 01:18:12;;;;;;;0.10;0.10;;;3.50;87.30;;;;;;6306740;22;20015;-71
2022/03/01 01:20:38;;;;;;;1.40;1.30;;;3.40;87.60;;;;;;6315218;22;20007;-71
2022/03/01 01:23:05;;;;;;;0.85;0.85;;;3.40;88.30;;;;;;6304830;22;20014;-71
2022/03/01 01:25:32;;;;;;;0.10;0.10;;;3.20;89.30;;;;;;6306837;22;20007;-71
2022/03/01 01:28:00;;;;;;;0.47;0.47;;;3.20;90.70;;;;;;6288913;22;20022;-71
2022/03/01 01:30:29;;;;;;;0.20;0.20;;;3.10;90.10;;;;;;6306776;22;20018;-72
2022/03/01 01:32:55;;;;;;;0.38;0.38;;;3.00;90.20;;;;;;6315042;22;20015;-71
2022/03/01 01:35:24;;;;;;;0.47;0.47;;;3.00;90.50;;;;;;6317143;22;20424;-70
2022/03/01 01:37:52;;;;;;;3.92;2.28;;;3.00;90.70;;;;;;6306872;22;20010;-70
2022/03/01 01:40:21;;;;;;;1.75;1.65;;;3.00;90.80;;;;;;6315159;22;20011;-71
2022/03/01 01:42:47;;;;;;;1.25;1.15;;;3.00;90.80;;;;;;6304850;22;19999;-70
2022/03/01 01:45:14;;;;;;;5.97;1.80;;;3.10;90.70;;;;;;6315180;22;20056;-70
2022/03/01 01:47:40;;;;;;;0.10;0.10;;;2.90;90.90;;;;;;6306644;22;20090;-72
2022/03/01 01:50:08;;;;;;;0.17;0.17;;;2.90;90.90;;;;;;6304637;22;20501;-71
2022/03/01 01:52:34;;;;;;;0.13;0.13;;;2.80;91.00;;;;;;6316740;22;20014;-71
2022/03/01 01:55:00;;;;;;;0.70;0.70;;;2.70;92.00;;;;;;6315020;22;20011;-71
2022/03/01 01:57:26;;;;;;;1.98;1.88;;;2.70;91.80;;;;;;6315214;22;20003;-70
2022/03/01 01:59:56;;;;;;;0.20;0.20;;;2.60;91.80;;;;;;6306456;22;20466;-70
2022/03/01 02:02:25;;;;;;;0.68;0.68;;;2.60;92.10;;;;;;6315186;22;20352;-71
2022/03/01 02:04:50;;;;;;;0.10;0.10;;;2.50;92.20;;;;;;6316709;22;20085;-71
2022/03/01 02:07:17;;;;;;;0.10;0.10;;;2.50;92.40;;;;;;6314977;22;20016;-71
2022/03/01 02:09:43;;;;;;;2.28;2.17;;;2.40;92.60;;;;;;6304890;22;20133;-70
2022/03/01 02:12:09;;;;;;;0.63;0.57;;;2.30;92.50;;;;;;6316395;22;20011;-71
2022/03/01 02:14:38;;;;;;;1.45;0.68;;;2.40;92.60;;;;;;6306475;22;20007;-72
2022/03/01 02:17:08;;;;;;;0.20;0.20;;;2.40;92.90;;;;;;6316214;22;20037;-71
2022/03/01 02:19:35;;;;;;;0.10;0.10;;;2.40;92.90;;;;;;6316566;22;20053;-72
2022/03/01 02:22:01;;;;;;;0.10;0.10;;;2.40;93.00;;;;;;6304566;22;20084;-71
2022/03/01 02:24:29;;;;;;;0.10;0.10;;;2.30;93.10;;;;;;6316420;22;20432;-73
2022/03/01 02:26:57;;;;;;;0.10;0.10;;;2.30;93.60;;;;;;6316511;22;20450;-71
2022/03/01 02:29:25;;;;;;;0.00;0.00;;;2.00;94.50;;;;;;6314709;22;20003;-71
2022/03/01 02:31:53;;;;;;;0.40;0.40;;;1.90;95.70;;;;;;6315193;22;20065;-71
2022/03/01 02:34:19;;;;;;;0.20;0.20;;;1.90;95.70;;;;;;6314569;22;20015;-71
2022/03/01 02:36:45;;;;;;;0.52;0.52;;;1.50;97.50;;;;;;6279090;22;20313;-72
2022/03/01 02:39:13;;;;;;;0.90;0.90;;;1.50;97.30;;;;;;6316129;22;20007;-71
2022/03/01 02:41:41;;;;;;;0.10;0.10;;;1.50;97.00;;;;;;6316253;22;20003;-71
2022/03/01 02:44:07;;;;;;;0.10;0.10;;;1.50;97.00;;;;;;6314294;22;20010;-71
2022/03/01 02:46:33;;;;;;;0.20;0.20;;;1.50;97.20;;;;;;6304573;22;20003;-71
2022/03/01 02:49:00;;;;;;;0.98;0.98;;;1.40;97.80;;;;;;6304391;22;20007;-71
2022/03/01 02:51:27;;;;;;;1.10;1.05;;;1.30;98.70;;;;;;6315941;22;20018;-71
2022/03/01 02:53:53;;;;;;;2.33;2.17;;;1.30;99.20;;;;;;6306009;22;20018;-71
2022/03/01 02:56:20;;;;;;;5.18;1.65;;;1.20;99.60;;;;;;6305949;22;20014;-71
2022/03/01 02:58:46;;;;;;;0.40;0.40;;;1.20;99.50;;;;;;6315934;22;20027;-72
2022/03/01 03:01:12;;;;;;;0.20;0.20;;;1.30;99.50;;;;;;6316061;22;20007;-72
2022/03/01 03:03:38;;;;;;;0.47;0.47;;;1.30;99.70;;;;;;6314617;22;20086;-70
2022/03/01 03:06:04;;;;;;;0.25;0.25;;;1.30;99.70;;;;;;6314436;22;20018;-71
2022/03/01 03:08:31;;;;;;;2.30;0.95;;;1.30;99.20;;;;;;6306007;22;19999;-71
2022/03/01 03:10:57;;;;;;;0.10;0.10;;;1.30;99.00;;;;;;6315963;22;20039;-71
2022/03/01 03:13:25;;;;;;;2.30;0.80;;;1.30;98.90;;;;;;6288522;22;20011;-71
2022/03/01 03:15:51;;;;;;;2.05;1.85;;;1.30;99.50;;;;;;6304143;22;20340;-71
2022/03/01 03:18:17;;;;;;;0.60;0.60;;;1.30;99.90;;;;;;6305785;22;20003;-71
2022/03/01 03:20:43;;;;;;;0.10;0.10;;;1.30;99.70;;;;;;6314563;22;20011;-71
2022/03/01 03:23:10;;;;;;;0.10;0.10;;;1.20;99.50;;;;;;6303781;22;20015;-70
2022/03/01 03:25:36;;;;;;;0.10;0.10;;;1.10;99.60;;;;;;6315959;22;20007;-71
2022/03/01 03:28:02;;;;;;;1.00;0.65;;;1.10;99.90;;;;;;6305774;22;20052;-71
2022/03/01 03:30:28;;;;;;;0.10;0.10;;;1.10;99.90;;;;;;6315746;22;20437;-72
2022/03/01 03:32:54;;;;;;;0.40;0.40;;;0.90;99.90;;;;;;6314456;22;20011;-71
2022/03/01 03:35:19;;;;;;;0.10;0.10;;;0.90;99.90;;;;;;6315868;22;20078;-71
2022/03/01 03:37:46;;;;;;;0.10;0.10;;;0.80;99.90;;;;;;6315969;22;20011;-71
2022/03/01 03:40:13;;;;;;;0.10;0.10;;;0.90;99.90;;;;;;6315612;22;20313;-71
2022/03/01 03:42:39;;;;;;;0.73;0.73;;;0.90;99.90;;;;;;6315819;22;20003;-71
2022/03/01 03:45:06;;;;;;;0.20;0.20;;;0.90;99.90;;;;;;6315665;22;20007;-71
2022/03/01 03:47:32;;;;;;;0.17;0.17;;;0.80;99.90;;;;;;6304280;22;20011;-71
2022/03/01 03:49:58;;;;;;;0.10;0.10;;;0.90;99.90;;;;;;6288000;22;20069;-70
2022/03/01 03:52:24;;;;;;;0.55;0.55;;;0.90;99.90;;;;;;6317724;22;20007;-70
2022/03/01 03:54:50;;;;;;;0.20;0.20;;;0.90;99.90;;;;;;6317871;22;20382;-71
2022/03/01 03:57:17;;;;;;;0.10;0.10;;;0.80;99.90;;;;;;6306319;22;20018;-70
2022/03/01 03:59:43;;;;;;;1.08;1.05;;;0.70;99.90;;;;;;6317666;22;20325;-71
2022/03/01 04:02:09;;;;;;;0.10;0.10;;;0.70;99.90;;;;;;6317709;22;20014;-71
2022/03/01 04:04:36;;;;;;;0.40;0.40;;;0.40;99.90;;;;;;6316177;22;20011;-71
2022/03/01 04:07:02;;;;;;;0.10;0.10;;;0.30;99.90;;;;;;6306356;22;20011;-71
2022/03/01 04:09:28;;;;;;;0.65;0.65;;;0.20;99.90;;;;;;6317667;22;20102;-71
2022/03/01 04:11:54;;;;;;;0.13;0.13;;;0.20;99.90;;;;;;6307808;22;20042;-71
2022/03/01 04:14:19;;;;;;;7.78;0.95;;;0.20;99.90;;;;;;6317450;22;20000;-71
2022/03/01 04:16:46;;;;;;;0.15;0.15;;;0.20;99.90;;;;;;6317770;22;20058;-70
2022/03/01 04:19:12;;;;;;;1.40;1.30;;;0.00;99.90;;;;;;6316019;22;20007;-70
2022/03/01 04:21:39;;;;;;;0.75;0.75;;;0.00;99.90;;;;;;6316219;22;20375;-70
2022/03/01 04:24:06;;;;;;;0.63;0.63;;;0.00;99.90;;;;;;6279852;22;20011;-71
2022/03/01 04:26:32;;;;;;;1.25;0.90;;;-0.10;99.90;;;;;;6307424;22;20003;-71
2022/03/01 04:28:58;;;;;;;0.10;0.10;;;-0.10;99.90;;;;;;6279921;22;20011;-70
2022/03/01 04:31:24;;;;;;;0.20;0.20;;;-0.30;99.90;;;;;;6315801;22;20015;-70
2022/03/01 04:33:50;;;;;;;0.10;0.10;;;-0.20;99.90;;;;;;6307659;22;20007;-71
2022/03/01 04:36:16;;;;;;;0.38;0.38;;;-0.30;99.90;;;;;;6315823;22;20003;-71
2022/03/01 04:38:44;;;;;;;0.20;0.20;;;-0.30;99.90;;;;;;6316073;22;20015;-71
2022/03/01 04:41:09;;;;;;;0.28;0.28;;;-0.20;99.90;;;;;;6305588;22;20052;-71
2022/03/01 04:43:36;;;;;;;1.83;1.73;;;-0.20;99.90;;;;;;6315934;22;19999;-70
2022/03/01 04:46:03;;;;;;;0.10;0.10;;;-0.50;99.90;;;;;;6317455;22;20011;-70
2022/03/01 04:48:29;;;;;;;0.10;0.10;;;-0.60;99.90;;;;;;6315631;22;20018;-70
2022/03/01 04:50:56;;;;;;;0.20;0.20;;;-0.60;99.90;;;;;;6305146;22;20023;-70
2022/03/01 04:53:23;;;;;;;0.17;0.17;;;-0.60;99.90;;;;;;6315814;22;20011;-71
2022/03/01 04:55:49;;;;;;;1.00;0.98;;;-0.50;99.90;;;;;;6317363;22;20328;-70
2022/03/01 04:58:16;;;;;;;0.17;0.17;;;-0.50;99.90;;;;;;6317064;22;20017;-70
2022/03/01 05:00:42;;;;;;;0.10;0.10;;;-0.50;99.90;;;;;;6307154;22;20014;-70
2022/03/01 05:03:07;;;;;;;0.10;0.10;;;-0.60;99.90;;;;;;6304623;22;20011;-70
2022/03/01 05:05:33;;;;;;;0.15;0.15;;;-0.60;99.90;;;;;;6306565;22;20011;-71
2022/03/01 05:07:59;;;;;;;0.32;0.32;;;-0.50;99.90;;;;;;6315089;22;20004;-71
2022/03/01 05:10:25;;;;;;;0.20;0.20;;;-0.40;99.90;;;;;;6316786;22;20007;-71
2022/03/01 05:12:58;;;;;;;0.95;0.95;;;-0.40;99.90;;;;;;6304884;22;20007;-72
2022/03/01 05:15:26;;;;;;;0.10;0.10;;;-0.40;99.90;;;;;;6315222;22;20007;-74
2022/03/01 05:17:54;;;;;;;2.53;2.10;;;-0.40;99.90;;;;;;6279955;22;20019;-75
2022/03/01 05:20:21;;;;;;;0.10;0.10;;;-0.40;99.90;;;;;;6317058;22;20053;-75
2022/03/01 05:22:47;;;;;;;0.10;0.10;;;-0.40;99.90;;;;;;6316948;22;20011;-75
2022/03/01 05:25:17;;;;;;;0.10;0.10;;;-0.40;99.90;;;;;;6314985;22;20003;-75
2022/03/01 05:27:46;;;;;;;0.20;0.20;;;-0.50;99.90;;;;;;6304679;22;20019;-75
2022/03/01 05:30:15;;;;;;;0.40;0.40;;;-0.50;99.90;;;;;;6278460;22;20011;-75
2022/03/01 05:32:44;;;;;;;0.50;0.50;;;-0.40;99.90;;;;;;6304912;22;20030;-73
2022/03/01 05:35:13;;;;;;;1.35;1.08;;;-0.40;99.90;;;;;;6306406;22;20086;-73
2022/03/01 05:37:41;;;;;;;0.73;0.50;;;-0.40;99.90;;;;;;6306694;22;20082;-73
2022/03/01 05:40:08;;;;;;;0.10;0.10;;;-0.20;99.90;;;;;;6306290;22;20331;-73
2022/03/01 05:42:35;;;;;;;0.10;0.10;;;-0.20;99.90;;;;;;6305218;22;20419;-74
2022/03/01 05:45:01;;;;;;;0.10;0.10;;;-0.30;99.90;;;;;;6306967;22;20011;-74
2022/03/01 05:47:27;;;;;;;1.33;1.33;;;-0.30;99.90;;;;;;6279495;22;20011;-74
2022/03/01 05:49:54;;;;;;;0.10;0.10;;;-0.30;99.90;;;;;;6314619;22;20007;-74
2022/03/01 05:52:21;;;;;;;0.10;0.10;;;-0.20;99.90;;;;;;6305101;22;20056;-74
2022/03/01 05:54:47;;;;;;;3.42;2.47;;;-0.20;99.90;;;;;;6304732;22;20011;-75
2022/03/01 05:57:13;;;;;;;0.20;0.20;;;-0.20;99.90;;;;;;6306625;22;20367;-71
2022/03/01 05:59:39;;;;;;;0.10;0.10;;;-0.20;99.90;;;;;;6306755;22;20003;-74
2022/03/01 06:02:05;;;;;;;0.15;0.15;;;-0.20;99.90;;;;;;6315060;22;20019;-75
2022/03/01 06:04:30;;;;;;;0.10;0.10;;;-0.20;99.90;;;;;;6316584;22;20018;-73
2022/03/01 06:06:56;;;;;;;0.38;0.38;;;-0.20;99.90;;;;;;6306452;22;19999;-73
2022/03/01 06:09:22;;;;;;;10.52;2.35;;;-0.20;99.90;;;;;;6316362;22;20392;-78
2022/03/01 06:11:48;;;;;;;0.10;0.10;;;0.00;99.90;;;;;;6316540;22;20011;-74
2022/03/01 06:14:13;;;;;;;4.85;1.08;;;0.00;99.90;;;;;;6305933;22;20004;-73
2022/03/01 06:16:40;;;;;;;0.65;0.65;;;-0.10;99.90;;;;;;6316440;22;20034;-75
2022/03/01 06:19:06;;;;;;;0.30;0.30;;;-0.10;99.90;;;;;;6279379;22;20004;-73
2022/03/01 06:21:32;;;;;;;7.63;3.65;;;-0.10;99.90;;;;;;6304164;22;20015;-73
2022/03/01 06:24:00;;;;;;;0.10;0.10;;;-0.10;99.90;;;;;;6316663;22;20344;-78
2022/03/01 06:26:25;;;;;;;0.50;0.47;;;-0.10;99.90;;;;;;6306161;22;20080;-73
2022/03/01 06:28:51;;;;;;;2.63;1.23;;;-0.10;99.90;;;;;;6316484;22;20472;-75
2022/03/01 06:31:17;;;;;;;0.10;0.10;;;-0.10;99.90;;;;;;6306018;22;20066;-75
2022/03/01 06:33:43;;;;;;;0.15;0.15;;;-0.10;99.90;;;;;;6316478;22;20011;-75
2022/03/01 06:36:08;;;;;;;0.90;0.90;;;-0.10;99.90;;;;;;6316078;22;20015;-72
2022/03/01 06:38:34;;;;;;;0.10;0.10;;;-0.10;99.90;;;;;;6316057;22;20014;-74
2022/03/01 06:41:00;;;;;;;0.10;0.10;;;-0.10;99.90;;;;;;6316082;22;20057;-75
2022/03/01 06:43:26;;;;;;;3.35;2.35;;;-0.10;99.90;;;;;;6314519;22;20316;-76
2022/03/01 06:45:52;;;;;;;0.73;0.73;;;-0.10;99.90;;;;;;6306283;22;20034;-75
2022/03/01 06:48:18;;;;;;;0.10;0.10;;;-0.10;99.90;;;;;;6315984;22;20003;-75
2022/03/01 06:50:45;;;;;;;1.27;1.20;;;0.00;99.90;;;;;;6305530;22;20019;-74
2022/03/01 06:53:13;;;;;;;3.10;2.80;;;-0.10;99.90;;;;;;6315988;22;20025;-75
2022/03/01 06:55:41;;;;;;;3.97;3.28;;;-0.10;99.90;;;;;;6305960;22;20034;-74
2022/03/01 06:58:07;;;;;;;1.30;1.27;;;0.00;99.90;;;;;;6313738;22;20003;-74
2022/03/01 07:00:33;;;;;;;0.40;0.40;;;0.00;99.90;;;;;;6314857;22;20326;-72
2022/03/01 07:02:59;;;;;;;0.80;0.80;;;0.00;99.90;;;;;;6305909;22;20030;-75
2022/03/01 07:05:24;;;;;;;0.10;0.10;;;0.00;99.90;;;;;;6304274;22;20018;-74
2022/03/01 07:07:50;;;;;;;0.10;0.10;;;0.00;99.90;;;;;;6314373;22;20026;-74
2022/03/01 07:10:16;;;;;;;0.60;0.57;;;0.00;99.90;;;;;;6303506;22;20428;-76
2022/03/01 07:12:44;;;;;;;1.17;0.52;;;0.00;99.90;;;;;;6304364;22;20007;-76
2022/03/01 07:15:11;;;;;;;0.20;0.20;;;0.10;99.90;;;;;;6278397;22;20011;-74
2022/03/01 07:17:37;;;;;;;1.20;1.17;;;0.10;99.90;;;;;;6305275;22;20006;-75
2022/03/01 07:20:04;;;;;;;0.10;0.10;;;0.20;99.90;;;;;;6288659;22;20003;-74
2022/03/01 07:22:31;;;;;;;1.92;1.70;;;0.20;99.90;;;;;;6315589;22;20010;-74
2022/03/01 07:24:57;;;;;;;2.33;1.00;;;0.20;99.90;;;;;;6303527;22;20336;-74
2022/03/01 07:27:23;;;;;;;0.68;0.68;;;0.30;99.90;;;;;;6314083;22;20011;-74
2022/03/01 07:29:48;;;;;;;0.93;0.77;;;0.40;99.90;;;;;;6315816;22;20332;-76
2022/03/01 07:32:14;;;;;;;5.05;3.03;;;0.40;99.90;;;;;;6314135;22;20010;-75
2022/03/01 07:34:42;;;;;;;0.47;0.43;;;0.40;99.90;;;;;;6314410;22;20007;-74
2022/03/01 07:37:08;;;;;;;0.25;0.25;;;0.50;99.90;;;;;;6303946;22;20043;-73
2022/03/01 07:39:35;;;;;;;19.88;6.93;;;0.60;99.90;;;;;;6303795;22;20056;-74
2022/03/01 07:42:05;;;;;;;0.10;0.10;;;0.60;99.90;;;;;;6304199;22;20007;-74
2022/03/01 07:44:34;;;;;;;0.10;0.10;;;0.70;99.90;;;;;;6314157;22;20007;-75
2022/03/01 07:46:59;;;;;;;2.28;1.40;;;0.80;99.90;;;;;;6315703;22;20074;-74
2022/03/01 07:49:25;;;;;;;0.32;0.25;;;0.90;99.90;;;;;;6315454;22;20419;-75
2022/03/01 07:51:51;;;;;;;0.60;0.60;;;1.00;99.90;;;;;;6314771;22;20046;-74
2022/03/01 07:54:19;;;;;;;0.60;0.55;;;1.20;99.90;;;;;;6312951;22;20329;-73
2022/03/01 07:56:45;;;;;;;1.08;0.90;;;1.30;99.90;;;;;;6303059;22;20007;-73
2022/03/01 07:59:11;;;;;;;0.35;0.35;;;1.40;99.90;;;;;;6315777;22;20050;-71
2022/03/01 08:01:36;;;;;;;0.30;0.30;;;1.40;99.90;;;;;;6315436;22;20007;-73
2022/03/01 08:04:02;;;;;;;0.10;0.10;;;1.40;99.90;;;;;;6313867;22;20148;-72
2022/03/01 08:06:28;;;;;;;0.63;0.63;;;1.50;99.90;;;;;;6303397;22;20003;-73
2022/03/01 08:08:54;;;;;;;0.10;0.10;;;1.50;99.90;;;;;;6315574;22;20003;-74
2022/03/01 08:11:19;;;;;;;3.53;1.88;;;1.60;99.90;;;;;;6315445;22;20082;-74
2022/03/01 08:13:45;;;;;;;1.80;1.65;;;1.80;99.90;;;;;;6304068;22;20042;-75
2022/03/01 08:16:11;;;;;;;0.55;0.55;;;1.80;99.90;;;;;;6305650;22;20057;-73
2022/03/01 08:18:37;;;;;;;0.10;0.10;;;1.90;99.90;;;;;;6315485;22;20060;-73
2022/03/01 08:21:03;;;;;;;11.45;2.25;;;2.00;99.90;;;;;;6315530;22;20073;-74
2022/03/01 08:23:29;;;;;;;0.50;0.50;;;2.10;99.90;;;;;;6303887;22;20031;-74
2022/03/01 08:25:55;;;;;;;0.95;0.95;;;2.20;99.90;;;;;;6314051;22;20140;-73
2022/03/01 08:28:21;;;;;;;0.52;0.52;;;2.30;99.90;;;;;;6303195;22;19999;-73
2022/03/01 08:30:46;;;;;;;2.30;2.13;;;2.60;99.90;;;;;;6315709;22;20011;-74
2022/03/01 08:33:16;;;;;;;2.72;2.47;;;2.70;99.90;;;;;;6315408;22;20396;-75
2022/03/01 08:35:42;;;;;;;2.55;1.55;;;2.70;99.60;;;;;;6303861;22;20019;-73
2022/03/01 08:38:08;;;;;;;1.23;1.17;;;2.80;99.60;;;;;;6279227;22;20494;-73
2022/03/01 08:40:37;;;;;;;0.40;0.40;;;2.80;99.20;;;;;;6307224;22;20004;-73
2022/03/01 08:43:06;;;;;;;0.30;0.30;;;2.90;98.70;;;;;;6315816;22;20056;-73
2022/03/01 08:45:32;;;;;;;1.30;1.25;;;2.90;97.60;;;;;;6315637;22;20076;-74
2022/03/01 08:47:58;;;;;;;0.10;0.10;;;3.00;96.10;;;;;;6315704;22;20447;-74
2022/03/01 08:50:24;;;;;;;1.38;1.30;;;3.10;96.00;;;;;;6289478;22;20011;-74
2022/03/01 08:52:50;;;;;;;0.10;0.10;;;3.10;95.80;;;;;;6315462;22;20004;-75
2022/03/01 08:55:16;;;;;;;3.55;1.73;;;3.20;95.80;;;;;;6279907;22;20011;-74
2022/03/01 08:57:42;;;;;;;0.47;0.47;;;3.20;95.60;;;;;;6305634;22;20015;-73
2022/03/01 09:00:12;;;;;;;0.10;0.10;;;3.30;95.80;;;;;;6317245;22;20328;-73
2022/03/01 09:02:38;;;;;;;2.33;0.75;;;3.40;95.20;;;;;;6305588;22;20093;-73
2022/03/01 09:05:07;;;;;;;0.88;0.60;;;3.50;95.20;;;;;;6315569;22;20046;-74
2022/03/01 09:07:34;;;;;;;9.48;2.28;;;3.70;94.70;;;;;;6307071;22;20011;-73
2022/03/01 09:10:01;;;;;;;1.85;0.80;;;3.80;94.40;;;;;;6305407;22;20007;-75
2022/03/01 09:12:27;;;;;;;2.40;2.15;;;4.00;94.00;;;;;;6315799;22;20086;-74
2022/03/01 09:14:52;;;;;;;1.33;1.25;;;4.00;93.30;;;;;;6317216;22;20542;-75
2022/03/01 09:17:18;;;;;;;0.63;0.63;;;4.10;92.70;;;;;;6305539;22;20329;-74
2022/03/01 09:19:44;;;;;;;1.38;1.27;;;4.20;92.60;;;;;;6316985;22;20309;-72
2022/03/01 09:22:10;;;;;;;0.63;0.63;;;4.20;92.90;;;;;;6305409;22;20067;-73
2022/03/01 09:24:36;;;;;;;2.78;2.50;;;4.40;92.70;;;;;;6305151;22;20043;-70
2022/03/01 09:27:02;;;;;;;0.70;0.70;;;4.50;91.80;;;;;;6316968;22;20010;-73
2022/03/01 09:29:30;;;;;;;0.73;0.73;;;4.50;91.50;;;;;;6316577;22;20010;-72
2022/03/01 09:31:57;;;;;;;3.40;0.88;;;4.50;91.20;;;;;;6316758;22;20022;-70
2022/03/01 09:34:23;;;;;;;6.35;5.15;;;4.60;91.70;;;;;;6316618;22;20014;-72
2022/03/01 09:36:50;;;;;;;0.10;0.10;;;4.70;91.90;;;;;;6315365;22;20003;-72
2022/03/01 09:39:16;;;;;;;0.73;0.73;;;4.80;91.30;;;;;;6316925;22;20007;-73
2022/03/01 09:41:42;;;;;;;3.03;1.05;;;5.00;91.50;;;;;;6316695;22;20128;-73
2022/03/01 09:44:09;;;;;;;0.43;0.43;;;5.00;90.70;;;;;;6279024;22;20483;-73
2022/03/01 09:46:35;;;;;;;0.65;0.65;;;5.30;90.50;;;;;;6316231;22;20064;-73
2022/03/01 09:49:03;;;;;;;0.55;0.52;;;5.50;90.00;;;;;;6316344;22;20066;-73
2022/03/01 09:51:30;;;;;;;4.63;2.10;;;5.70;87.60;;;;;;6305794;22;20061;-73
2022/03/01 09:53:55;;;;;;;0.52;0.50;;;5.60;87.50;;;;;;6304860;22;20003;-73
2022/03/01 09:56:21;;;;;;;5.30;3.22;;;5.70;87.00;;;;;;6306350;22;20007;-73
2022/03/01 09:58:49;;;;;;;0.10;0.10;;;6.10;87.20;;;;;;6305996;22;20007;-74
2022/03/01 10:01:17;;;;;;;0.20;0.20;;;6.30;86.40;;;;;;6316557;22;20003;-74
2022/03/01 10:03:51;;;;;;;0.52;0.52;;;6.50;85.20;;;;;;6314979;22;20015;-73
2022/03/01 10:06:24;;;;;;;0.10;0.10;;;6.60;85.90;;;;;;6306403;22;20007;-74
2022/03/01 10:08:54;;;;;;;0.90;0.55;;;6.70;81.00;;;;;;6304955;22;20057;-73
2022/03/01 10:11:23;;;;;;;10.65;2.25;;;6.50;79.30;;;;;;6315130;22;20022;-73
2022/03/01 10:13:58;;;;;;;0.60;0.60;;;6.70;79.30;;;;;;6315090;22;20431;-74
2022/03/01 10:16:24;;;;;;;13.40;1.45;;;6.90;79.40;;;;;;6304920;22;20012;-74
2022/03/01 10:18:55;;;;;;;1.13;1.10;;;6.90;78.70;;;;;;6314861;22;20095;-73
2022/03/01 10:21:25;;;;;;;1.15;0.80;;;7.10;78.40;;;;;;6314885;22;20052;-74
2022/03/01 10:24:00;;;;;;;0.00;0.00;;;6.80;77.20;;;;;;6305152;22;20050;-74
2022/03/01 10:26:29;;;;;;;0.93;0.57;;;7.00;80.20;;;;;;6279103;22;20007;-74
2022/03/01 10:28:57;;;;;;;0.20;0.20;;;7.30;78.80;;;;;;6289402;22;20563;-74
2022/03/01 10:31:29;;;;;;;0.20;0.20;;;7.30;78.30;;;;;;6304608;22;20444;-73
2022/03/01 10:34:10;;;;;;;4.40;2.15;;;7.40;77.70;;;;;;6306231;22;20007;-74
2022/03/01 10:36:49;;;;;;;1.38;1.27;;;7.60;77.10;;;;;;6304583;22;20681;-75
2022/03/01 10:39:19;;;;;;;1.35;1.25;;;7.80;79.30;;;;;;6315912;22;20003;-73
2022/03/01 10:41:50;;;;;;;1.67;1.25;;;8.30;76.40;;;;;;6305957;22;20007;-74
2022/03/01 10:44:28;;;;;;;0.03;0.03;;;8.00;75.90;;;;;;6306288;22;20014;-74
2022/03/01 10:47:02;;;;;;;0.60;0.38;;;8.00;74.50;;;;;;6314571;22;20440;-73
2022/03/01 10:49:37;;;;;;;0.57;0.57;;;7.60;74.20;;;;;;6314801;22;20120;-67
2022/03/01 10:52:08;;;;;;;3.90;2.40;;;7.90;74.50;;;;;;6305976;22;20449;-66
2022/03/01 10:54:40;;;;;;;2.40;1.67;;;7.90;74.30;;;;;;6316355;22;20011;-74
2022/03/01 10:57:20;;;;;;;0.80;0.75;;;7.90;73.50;;;;;;6306442;22;20011;-74
2022/03/01 10:59:48;;;;;;;0.30;0.30;;;8.00;71.90;;;;;;6305151;22;20003;-84
2022/03/01 11:02:16;;;;;;;0.35;0.35;;;7.90;70.90;;;;;;6316300;22;20007;-81
2022/03/01 11:04:42;;;;;;;1.88;1.63;;;7.80;71.60;;;;;;6306434;22;20007;-65
2022/03/01 11:07:11;;;;;;;0.10;0.10;;;7.80;71.60;;;;;;6316157;22;20133;-78
2022/03/01 11:09:39;;;;;;;0.40;0.30;;;7.90;74.10;;;;;;6314546;22;20014;-82
2022/03/01 11:12:08;;;;;;;0.55;0.55;;;8.50;73.80;;;;;;6303950;22;20090;-77
2022/03/01 11:15:38;;;;;;;0.20;0.20;;;9.00;74.40;;;;;;6315824;22;20008;-80
2022/03/01 11:18:45;;;;;;;0.70;0.70;;;9.40;69.00;;;;;;6306230;22;20014;-67
2022/03/01 11:21:15;;;;;;;9.07;1.80;;;9.40;71.80;;;;;;6303924;22;20011;-71
2022/03/01 11:23:43;;;;;;;1.65;1.00;;;9.60;69.00;;;;;;6304513;22;20109;-72
2022/03/01 11:26:17;;;;;;;2.17;1.02;;;9.60;69.50;;;;;;6304174;22;20057;-72
2022/03/01 11:28:57;;;;;;;0.77;0.77;;;8.80;67.30;;;;;;6314509;22;20015;-73
2022/03/01 11:31:27;;;;;;;0.10;0.10;;;9.00;69.80;;;;;;6315928;22;20015;-72
2022/03/01 11:34:13;;;;;;;0.80;0.80;;;10.40;66.20;;;;;;6316053;22;20391;-73
2022/03/01 11:36:48;;;;;;;0.40;0.40;;;10.90;65.30;;;;;;6314326;22;20004;-73
2022/03/01 11:39:23;;;;;;;0.03;0.03;;;11.40;63.10;;;;;;6314606;22;20056;-73
2022/03/01 11:41:52;;;;;;;0.20;0.20;;;9.40;64.20;;;;;;6289415;22;20002;-73
2022/03/01 11:44:24;;;;;;;1.02;1.02;;;10.10;65.10;;;;;;6306096;22;20073;-75
2022/03/01 11:46:51;;;;;;;4.85;1.90;;;10.00;65.00;;;;;;6315706;22;19999;-72
2022/03/01 11:49:20;;;;;;;2.10;1.85;;;11.30;62.70;;;;;;6304089;22;20015;-74
2022/03/01 11:51:55;;;;;;;1.48;1.27;;;10.80;64.10;;;;;;6315237;22;20050;-75
2022/03/01 11:54:34;;;;;;;1.15;1.05;;;11.70;62.10;;;;;;6316203;22;20003;-73
2022/03/01 11:57:07;;;;;;;0.80;0.75;;;12.00;63.00;;;;;;6314391;22;20339;-73
2022/03/01 11:59:38;;;;;;;5.25;1.77;;;11.50;62.10;;;;;;6305659;22;20011;-74
2022/03/01 12:02:10;;;;;;;0.15;0.15;;;10.30;61.70;;;;;;6278833;22;20678;-74
2022/03/01 12:04:48;;;;;;;0.10;0.10;;;11.00;61.90;;;;;;6315862;22;20432;-73
2022/03/01 12:07:33;;;;;;;5.95;1.65;;;11.30;60.60;;;;;;6314203;22;20343;-73
2022/03/01 12:10:08;;;;;;;0.68;0.68;;;12.10;59.40;;;;;;6315958;22;20003;-73
2022/03/01 12:12:44;;;;;;;0.82;0.82;;;11.40;56.70;;;;;;6290261;22;20340;-72
2022/03/01 12:15:12;;;;;;;1.70;0.75;;;10.10;57.20;;;;;;6290738;22;20047;-72
2022/03/01 12:17:47;;;;;;;0.75;0.75;;;10.00;58.80;;;;;;6309737;22;20094;-73
2022/03/01 12:20:17;;;;;;;0.95;0.95;;;9.80;58.60;;;;;;6317693;22;20018;-73
2022/03/01 12:23:28;;;;;;;0.50;0.50;;;9.80;59.10;;;;;;6317802;22;20444;-74
2022/03/01 12:25:54;;;;;;;0.10;0.10;;;9.00;59.70;;;;;;6259598;22;20004;-73
2022/03/01 12:28:22;;;;;;;1.80;0.65;;;9.70;60.30;;;;;;6317314;22;20003;-73
2022/03/01 12:30:48;;;;;;;0.50;0.50;;;9.30;59.90;;;;;;6317427;22;20046;-73
2022/03/01 12:33:18;;;;;;;0.88;0.63;;;10.30;58.90;;;;;;6315930;22;20003;-72
2022/03/01 12:35:58;;;;;;;0.47;0.45;;;10.30;58.90;;;;;;6317512;22;20011;-72
2022/03/01 12:38:24;;;;;;;1.23;1.13;;;10.80;59.00;;;;;;6305999;22;20333;-73
2022/03/01 12:40:49;;;;;;;0.25;0.25;;;12.00;57.10;;;;;;6317412;22;20086;-73
2022/03/01 12:43:15;;;;;;;0.28;0.28;;;11.00;57.40;;;;;;6305935;22;20007;-73
2022/03/01 12:45:47;;;;;;;0.40;0.40;;;12.90;52.70;;;;;;6305506;22;20083;-73
2022/03/01 12:48:16;;;;;;;1.27;0.75;;;12.50;53.30;;;;;;6280028;22;20451;-72
2022/03/01 12:50:50;;;;;;;4.28;1.75;;;12.10;54.80;;;;;;6317073;22;20325;-66
2022/03/01 12:53:21;;;;;;;0.30;0.30;;;12.70;55.20;;;;;;6317050;22;20436;-67
2022/03/01 12:55:52;;;;;;;1.65;0.98;;;13.60;52.60;;;;;;6305976;22;20452;-64